createdAt,value
2022-12-27T00:01:52.737Z,30.17
2022-12-27T00:04:23.956Z,30.24
2022-12-27T00:06:54.408Z,29.90
2022-12-27T00:09:25.618Z,31.14
2022-12-27T00:11:59.983Z,30.43
2022-12-27T00:14:31.401Z,30.92
2022-12-27T00:17:02.252Z,31.06
2022-12-27T00:19:33.373Z,30.83
2022-12-27T00:22:04.381Z,31.02
2022-12-27T00:24:36.775Z,30.18
2022-12-27T00:27:08.207Z,30.47
2022-12-27T00:29:39.114Z,30.50
2022-12-27T00:32:09.955Z,30.70
2022-12-27T00:34:41.343Z,30.37
2022-12-27T00:37:11.717Z,31.09
2022-12-27T00:39:42.948Z,31.27
2022-12-27T00:42:14.356Z,30.55
2022-12-27T00:44:45.262Z,30.94
2022-12-27T00:47:16.166Z,31.06
2022-12-27T00:49:47.566Z,30.71
2022-12-27T00:52:19.350Z,30.63
2022-12-27T00:54:50.733Z,32.21
2022-12-27T00:57:21.905Z,31.43
2022-12-27T00:59:53.220Z,32.00
2022-12-27T01:02:23.742Z,31.06
2022-12-27T01:04:56.118Z,31.55
2022-12-27T01:07:27.531Z,31.36
2022-12-27T01:09:58.449Z,32.12
2022-12-27T01:12:28.982Z,32.16
2022-12-27T01:15:00.349Z,31.43
2022-12-27T01:17:33.191Z,31.85
2022-12-27T01:20:04.645Z,31.20
2022-12-27T01:22:35.824Z,32.10
2022-12-27T01:25:07.687Z,31.98
2022-12-27T01:27:38.587Z,31.98
2022-12-27T01:30:09.582Z,32.07
2022-12-27T01:32:40.672Z,31.45
2022-12-27T01:35:11.862Z,31.17
2022-12-27T01:37:42.966Z,31.04
2022-12-27T01:40:14.856Z,32.40
2022-12-27T01:42:56.307Z,32.06
2022-12-27T01:45:30.454Z,32.40
2022-12-27T01:48:01.554Z,31.69
2022-12-27T01:50:32.053Z,31.52
2022-12-27T01:53:25.276Z,31.43
2022-12-27T01:56:05.636Z,32.38
2022-12-27T01:58:59.065Z,32.09
2022-12-27T02:01:35.511Z,31.82
2022-12-27T02:04:13.032Z,32.14
2022-12-27T02:06:45.012Z,32.20
2022-12-27T02:09:50.337Z,32.40
2022-12-27T02:12:22.685Z,31.93
2022-12-27T02:14:54.306Z,31.59
2022-12-27T02:17:28.141Z,31.21
2022-12-27T02:20:13.967Z,31.61
2022-12-27T02:23:39.844Z,31.59
2022-12-27T02:26:44.880Z,31.23
2022-12-27T02:29:22.665Z,31.62
2022-12-27T02:32:07.271Z,31.84
2022-12-27T02:34:47.116Z,32.24
2022-12-27T02:37:18.330Z,31.11
2022-12-27T02:39:50.904Z,31.88
2022-12-27T02:42:40.519Z,32.02
2022-12-27T02:45:38.811Z,32.62
2022-12-27T02:48:32.005Z,32.47
2022-12-27T02:51:24.147Z,32.80
2022-12-27T02:54:26.052Z,31.74
2022-12-27T02:57:55.261Z,31.24
2022-12-27T03:00:45.430Z,32.42
2022-12-27T03:03:44.742Z,31.71
2022-12-27T03:06:43.542Z,31.41
2022-12-27T03:10:04.579Z,31.30
2022-12-27T03:13:00.235Z,31.44
2022-12-27T03:15:58.877Z,31.70
2022-12-27T03:18:33.174Z,32.31
2022-12-27T03:21:24.038Z,32.04
2022-12-27T03:24:16.146Z,32.73
2022-12-27T03:26:49.812Z,31.78
2022-12-27T03:29:40.201Z,31.81
2022-12-27T03:32:31.221Z,31.51
2022-12-27T03:35:14.763Z,31.57
2022-12-27T03:38:04.328Z,31.55
2022-12-27T03:41:26.247Z,31.34
2022-12-27T03:43:57.366Z,31.31
2022-12-27T03:46:36.238Z,30.74
2022-12-27T03:49:29.069Z,30.95
2022-12-27T03:52:33.877Z,30.12
2022-12-27T03:55:07.008Z,29.68
2022-12-27T03:57:38.623Z,30.59
2022-12-27T04:00:10.840Z,30.24
2022-12-27T04:02:44.547Z,30.65
2022-12-27T04:05:16.163Z,30.38
2022-12-27T04:08:05.195Z,30.51
2022-12-27T04:10:54.070Z,29.94
2022-12-27T04:13:43.591Z,30.41
2022-12-27T04:16:33.212Z,29.51
2022-12-27T04:19:22.220Z,29.97
2022-12-27T04:22:11.247Z,29.71
2022-12-27T04:25:00.821Z,30.05
2022-12-27T04:27:51.179Z,29.96
2022-12-27T04:30:40.626Z,30.36
2022-12-27T04:33:29.438Z,30.29
2022-12-27T04:36:05.974Z,30.51
2022-12-27T04:38:37.863Z,29.90
2022-12-27T04:41:26.796Z,29.97
2022-12-27T04:44:16.142Z,29.75
2022-12-27T04:47:05.109Z,29.34
2022-12-27T04:49:54.807Z,29.13
2022-12-27T04:52:44.701Z,28.70
2022-12-27T04:55:23.242Z,29.43
2022-12-27T04:57:55.091Z,29.62
2022-12-27T05:00:49.271Z,29.33
2022-12-27T05:03:23.342Z,29.10
2022-12-27T05:05:55.172Z,29.14
2022-12-27T05:08:46.412Z,29.32
2022-12-27T05:11:35.799Z,29.33
2022-12-27T05:14:10.990Z,29.66
2022-12-27T05:16:44.369Z,29.14
2022-12-27T05:19:16.970Z,29.14
2022-12-27T05:22:05.949Z,28.00
2022-12-27T05:24:55.529Z,28.58
2022-12-27T05:27:26.672Z,28.86
2022-12-27T05:29:57.613Z,28.49
2022-12-27T05:32:28.605Z,28.00
2022-12-27T05:34:59.799Z,28.01
2022-12-27T05:37:32.784Z,28.39
2022-12-27T05:40:03.366Z,28.56
2022-12-27T05:42:34.391Z,28.29
2022-12-27T05:45:06.095Z,28.26
2022-12-27T05:47:37.132Z,28.17
2022-12-27T05:50:09.801Z,27.88
2022-12-27T05:52:41.503Z,27.88
2022-12-27T05:55:14.211Z,27.79
2022-12-27T05:57:46.271Z,27.74
2022-12-27T06:00:17.883Z,27.65
2022-12-27T06:02:49.958Z,27.78
2022-12-27T06:05:22.236Z,27.52
2022-12-27T06:07:54.323Z,27.45
2022-12-27T06:10:26.290Z,27.17
2022-12-27T06:12:58.592Z,27.32
2022-12-27T06:15:30.783Z,27.23
2022-12-27T06:18:05.408Z,27.02
2022-12-27T06:20:37.885Z,26.77
2022-12-27T06:23:09.064Z,27.20
2022-12-27T06:25:40.120Z,27.19
2022-12-27T06:28:11.196Z,26.93
2022-12-27T06:30:42.124Z,26.42
2022-12-27T06:33:13.345Z,26.52
2022-12-27T06:35:44.042Z,26.38
2022-12-27T06:38:15.228Z,26.44
2022-12-27T06:40:45.903Z,26.22
2022-12-27T06:43:17.328Z,26.09
2022-12-27T06:46:01.067Z,26.30
2022-12-27T06:48:32.631Z,26.41
2022-12-27T06:51:09.860Z,26.23
2022-12-27T06:53:41.337Z,25.77
2022-12-27T06:56:20.596Z,25.76
2022-12-27T06:58:53.331Z,25.64
2022-12-27T07:01:27.052Z,25.32
2022-12-27T07:04:01.351Z,25.28
2022-12-27T07:06:33.590Z,25.45
2022-12-27T07:09:05.147Z,25.12
2022-12-27T07:11:37.392Z,24.78
2022-12-27T07:14:11.287Z,24.80
2022-12-27T07:16:45.691Z,24.92
2022-12-27T07:19:16.983Z,24.67
2022-12-27T07:21:48.564Z,24.37
2022-12-27T07:24:19.832Z,24.45
2022-12-27T07:26:51.264Z,24.33
2022-12-27T07:29:41.895Z,24.33
2022-12-27T07:32:16.562Z,24.15
2022-12-27T07:34:47.301Z,24.17
2022-12-27T07:37:19.565Z,24.18
2022-12-27T07:39:50.989Z,24.39
2022-12-27T07:42:22.098Z,24.08
2022-12-27T07:44:53.205Z,23.92
2022-12-27T07:47:24.991Z,23.86
2022-12-27T07:49:56.132Z,23.88
2022-12-27T07:52:28.613Z,23.96
2022-12-27T07:55:00.052Z,24.05
2022-12-27T07:57:33.061Z,24.00
2022-12-27T08:00:05.876Z,23.76
2022-12-27T08:02:42.300Z,23.81
2022-12-27T08:05:13.303Z,23.57
2022-12-27T08:07:45.184Z,23.72
2022-12-27T08:10:16.375Z,23.76
2022-12-27T08:12:47.292Z,23.85
2022-12-27T08:15:18.489Z,23.72
2022-12-27T08:17:49.259Z,23.52
2022-12-27T08:20:20.427Z,23.52
2022-12-27T08:22:51.400Z,23.50
2022-12-27T08:25:23.248Z,23.60
2022-12-27T08:27:54.544Z,23.64
2022-12-27T08:30:25.487Z,23.32
2022-12-27T08:32:56.593Z,23.32
2022-12-27T08:35:51.736Z,23.26
2022-12-27T08:38:19.777Z,23.14
2022-12-27T08:40:50.793Z,23.38
2022-12-27T08:43:22.333Z,23.29
2022-12-27T08:45:53.641Z,23.18
2022-12-27T08:48:25.129Z,23.14
2022-12-27T08:50:56.844Z,23.03
2022-12-27T08:53:28.293Z,22.70
2022-12-27T08:55:59.551Z,22.48
2022-12-27T08:58:30.387Z,22.47
2022-12-27T09:01:09.684Z,22.39
2022-12-27T09:03:40.998Z,22.37
2022-12-27T09:06:15.679Z,22.32
2022-12-27T09:08:48.455Z,22.28
2022-12-27T09:11:22.358Z,22.22
2022-12-27T09:13:53.815Z,22.05
2022-12-27T09:16:26.971Z,22.08
2022-12-27T09:19:01.103Z,22.07
2022-12-27T09:21:35.396Z,22.28
2022-12-27T09:24:06.897Z,22.25
2022-12-27T09:26:37.627Z,22.32
2022-12-27T09:29:08.714Z,22.32
2022-12-27T09:31:39.632Z,22.04
2022-12-27T09:34:12.899Z,21.96
2022-12-27T09:36:45.276Z,21.79
2022-12-27T09:39:18.535Z,21.71
2022-12-27T09:45:45.853Z,21.20
2022-12-27T09:48:18.239Z,21.43
2022-12-27T09:50:57.139Z,21.47
2022-12-27T09:53:53.926Z,21.37
2022-12-27T09:56:54.094Z,21.36
2022-12-27T09:59:29.509Z,21.42
2022-12-27T10:02:01.645Z,21.49
2022-12-27T10:05:17.964Z,21.46
2022-12-27T10:07:46.459Z,21.44
2022-12-27T10:10:23.586Z,21.37
2022-12-27T10:13:04.923Z,21.45
2022-12-27T10:16:02.547Z,21.35
2022-12-27T10:18:51.921Z,21.36
2022-12-27T10:21:28.316Z,21.23
2022-12-27T10:24:21.972Z,21.18
2022-12-27T10:26:55.887Z,21.12
2022-12-27T10:29:28.572Z,21.12
2022-12-27T10:31:59.917Z,21.16
2022-12-27T10:34:31.149Z,20.96
2022-12-27T10:37:02.239Z,21.06
2022-12-27T10:39:35.264Z,21.21
2022-12-27T10:42:38.663Z,21.01
2022-12-27T10:45:34.811Z,20.94
2022-12-27T10:48:19.070Z,21.08
2022-12-27T10:50:58.670Z,21.14
2022-12-27T10:53:40.908Z,21.30
2022-12-27T10:56:40.596Z,21.04
2022-12-27T10:59:19.940Z,21.07
2022-12-27T11:02:03.535Z,21.02
2022-12-27T11:04:36.032Z,21.02
2022-12-27T11:07:06.327Z,21.01
2022-12-27T11:09:46.389Z,21.10
2022-12-27T11:12:33.676Z,21.04
2022-12-27T11:15:08.026Z,21.13
2022-12-27T11:17:43.091Z,21.13
2022-12-27T11:20:14.170Z,21.18
2022-12-27T11:22:52.611Z,21.15
2022-12-27T11:25:23.906Z,21.16
2022-12-27T11:28:03.041Z,21.17
2022-12-27T11:30:42.463Z,21.16
2022-12-27T11:33:26.902Z,21.21
2022-12-27T11:35:58.902Z,21.23
2022-12-27T11:38:32.652Z,21.25
2022-12-27T11:41:30.918Z,21.13
2022-12-27T11:44:05.055Z,21.17
2022-12-27T11:46:47.585Z,21.16
2022-12-27T11:49:23.906Z,20.97
2022-12-27T11:52:24.511Z,20.99
2022-12-27T11:55:06.406Z,20.83
2022-12-27T11:58:01.930Z,20.86
2022-12-27T12:00:41.669Z,20.71
2022-12-27T12:03:35.742Z,20.70
2022-12-27T12:06:44.001Z,20.59
2022-12-27T12:09:20.752Z,20.65
2022-12-27T12:12:14.328Z,20.60
2022-12-27T12:14:47.255Z,20.65
2022-12-27T12:17:39.381Z,20.53
2022-12-27T12:20:25.388Z,20.51
2022-12-27T12:23:06.601Z,20.50
2022-12-27T12:26:03.659Z,20.40
2022-12-27T12:29:00.753Z,20.39
2022-12-27T12:31:57.410Z,20.25
2022-12-27T12:34:58.939Z,20.25
2022-12-27T12:38:06.322Z,20.23
2022-12-27T12:40:55.532Z,20.16
2022-12-27T12:43:44.574Z,20.20
2022-12-27T12:46:25.959Z,20.13
2022-12-27T12:49:33.538Z,20.01
2022-12-27T12:52:31.447Z,19.91
2022-12-27T12:55:20.388Z,20.07
2022-12-27T12:58:18.982Z,20.07
2022-12-27T13:01:05.154Z,19.87
2022-12-27T13:03:57.504Z,19.94
2022-12-27T13:06:40.468Z,19.89
2022-12-27T13:09:17.535Z,19.92
2022-12-27T13:12:03.484Z,19.98
2022-12-27T13:14:48.249Z,19.84
2022-12-27T13:17:30.513Z,19.89
2022-12-27T13:20:25.929Z,19.94
2022-12-27T13:23:16.303Z,19.87
2022-12-27T13:26:05.894Z,19.81
2022-12-27T13:29:20.593Z,19.76
2022-12-27T13:32:09.833Z,19.72
2022-12-27T13:34:41.127Z,19.66
2022-12-27T13:37:39.590Z,19.78
2022-12-27T13:40:25.583Z,19.62
2022-12-27T13:42:56.918Z,19.55
2022-12-27T13:45:50.997Z,19.48
2022-12-27T13:48:42.378Z,19.47
2022-12-27T13:51:49.725Z,19.44
2022-12-27T13:54:43.998Z,19.30
2022-12-27T13:57:37.863Z,19.27
2022-12-27T14:00:12.335Z,19.29
2022-12-27T14:02:55.279Z,19.39
2022-12-27T14:05:47.657Z,19.18
2022-12-27T14:09:01.524Z,19.18
2022-12-27T14:12:02.964Z,19.06
2022-12-27T14:14:36.459Z,19.01
2022-12-27T14:17:39.548Z,18.98
2022-12-27T14:20:19.396Z,19.14
2022-12-27T14:23:02.696Z,18.92
2022-12-27T14:25:49.158Z,18.93
2022-12-27T14:28:43.454Z,18.86
2022-12-27T14:31:30.063Z,18.85
2022-12-27T14:34:23.604Z,18.75
2022-12-27T14:37:09.228Z,18.86
2022-12-27T14:40:13.768Z,18.70
2022-12-27T14:43:03.558Z,18.62
2022-12-27T14:45:57.708Z,18.65
2022-12-27T14:48:34.955Z,18.48
2022-12-27T14:51:59.378Z,18.44
2022-12-27T14:54:47.833Z,18.39
2022-12-27T14:57:27.476Z,18.33
2022-12-27T15:00:22.016Z,18.28
2022-12-27T15:03:17.543Z,18.13
2022-12-27T15:06:13.569Z,18.30
2022-12-27T15:09:15.667Z,18.15
2022-12-27T15:12:21.649Z,18.09
2022-12-27T15:15:22.928Z,18.00
2022-12-27T15:18:12.071Z,18.01
2022-12-27T15:20:42.872Z,17.99
2022-12-27T15:23:34.619Z,18.00
2022-12-27T15:26:14.499Z,17.96
2022-12-27T15:29:12.269Z,17.97
2022-12-27T15:32:24.283Z,17.81
2022-12-27T15:35:16.850Z,17.70
2022-12-27T15:38:03.282Z,17.69
2022-12-27T15:40:37.311Z,17.73
2022-12-27T15:43:42.247Z,17.32
2022-12-27T15:46:22.304Z,17.17
2022-12-27T15:49:13.797Z,17.23
2022-12-27T15:52:00.384Z,17.27
2022-12-27T15:54:57.876Z,17.33
2022-12-27T15:57:45.777Z,17.15
2022-12-27T16:00:33.383Z,16.96
2022-12-27T16:03:26.479Z,16.89
2022-12-27T16:05:58.456Z,16.94
2022-12-27T16:08:42.238Z,16.86
2022-12-27T16:11:15.076Z,16.81
2022-12-27T16:13:51.093Z,16.86
2022-12-27T16:16:31.601Z,16.74
2022-12-27T16:19:41.034Z,16.69
2022-12-27T16:22:33.225Z,16.81
2022-12-27T16:25:30.273Z,16.74
2022-12-27T16:28:18.271Z,16.51
2022-12-27T16:30:54.281Z,16.52
2022-12-27T16:33:32.603Z,16.41
2022-12-27T16:36:18.744Z,16.37
2022-12-27T16:39:02.226Z,16.41
2022-12-27T16:41:42.493Z,16.49
2022-12-27T16:44:16.678Z,16.39
2022-12-27T16:46:50.760Z,16.35
2022-12-27T16:49:57.069Z,16.27
2022-12-27T16:52:36.600Z,16.31
2022-12-27T16:55:42.158Z,16.33
2022-12-27T16:58:25.798Z,16.11
2022-12-27T17:00:58.970Z,16.16
2022-12-27T17:03:39.844Z,16.15
2022-12-27T17:06:34.792Z,16.27
2022-12-27T17:09:12.693Z,16.12
2022-12-27T17:12:04.159Z,16.19
2022-12-27T17:14:37.984Z,16.31
2022-12-27T17:17:22.245Z,16.15
2022-12-27T17:19:58.616Z,16.20
2022-12-27T17:22:35.108Z,16.26
2022-12-27T17:25:07.295Z,16.25
2022-12-27T17:27:59.308Z,16.20
2022-12-27T17:30:38.934Z,16.36
2022-12-27T17:33:33.343Z,16.37
2022-12-27T17:36:11.019Z,16.36
2022-12-27T17:39:06.333Z,16.42
2022-12-27T17:42:22.402Z,16.50
2022-12-27T17:45:11.300Z,16.57
2022-12-27T17:47:49.819Z,16.83
2022-12-27T17:50:27.967Z,16.79
2022-12-27T17:53:31.319Z,16.76
2022-12-27T17:56:21.934Z,16.99
2022-12-27T17:58:58.039Z,17.22
2022-12-27T18:01:33.387Z,17.24
2022-12-27T18:04:06.199Z,17.45
2022-12-27T18:06:38.944Z,17.46
2022-12-27T18:09:09.990Z,17.69
2022-12-27T18:11:43.882Z,17.67
2022-12-27T18:14:16.159Z,17.89
2022-12-27T18:16:47.472Z,17.93
2022-12-27T18:19:22.771Z,18.05
2022-12-27T18:22:00.194Z,18.24
2022-12-27T18:24:34.461Z,18.53
2022-12-27T18:27:08.400Z,18.58
2022-12-27T18:29:39.447Z,18.28
2022-12-27T18:32:12.156Z,18.57
2022-12-27T18:34:56.445Z,18.81
2022-12-27T18:37:28.701Z,19.00
2022-12-27T18:40:02.143Z,18.83
2022-12-27T18:42:37.115Z,18.87
2022-12-27T18:45:30.973Z,18.92
2022-12-27T18:48:03.658Z,19.24
2022-12-27T18:50:37.023Z,19.40
2022-12-27T18:53:24.153Z,19.59
2022-12-27T18:56:02.946Z,19.71
2022-12-27T18:58:34.975Z,19.73
2022-12-27T19:01:29.169Z,19.73
2022-12-27T19:04:19.146Z,20.30
2022-12-27T19:07:14.652Z,20.41
2022-12-27T19:09:53.286Z,20.44
2022-12-27T19:12:30.888Z,20.47
2022-12-27T19:15:19.557Z,20.73
2022-12-27T19:17:53.857Z,20.49
2022-12-27T19:20:36.685Z,21.10
2022-12-27T19:23:26.877Z,20.96
2022-12-27T19:26:18.432Z,21.46
2022-12-27T19:29:16.166Z,21.76
2022-12-27T19:32:07.955Z,21.60
2022-12-27T19:34:49.757Z,22.21
2022-12-27T19:37:21.191Z,22.13
2022-12-27T19:39:52.263Z,22.39
2022-12-27T19:42:31.182Z,21.99
2022-12-27T19:45:03.253Z,22.10
2022-12-27T19:47:37.328Z,22.06
2022-12-27T19:50:08.779Z,22.14
2022-12-27T19:52:40.624Z,22.57
2022-12-27T19:55:18.872Z,22.83
2022-12-27T19:57:50.077Z,23.01
2022-12-27T20:00:22.244Z,23.01
2022-12-27T20:02:53.368Z,23.18
2022-12-27T20:06:13.328Z,23.25
2022-12-27T20:08:22.137Z,23.63
2022-12-27T20:10:53.574Z,23.58
2022-12-27T20:13:26.106Z,23.64
2022-12-27T20:15:59.891Z,24.12
2022-12-27T20:18:30.981Z,24.20
2022-12-27T20:21:02.213Z,23.96
2022-12-27T20:23:33.692Z,23.97
2022-12-27T20:26:05.000Z,24.37
2022-12-27T20:28:36.571Z,24.74
2022-12-27T20:31:13.043Z,25.09
2022-12-27T20:33:44.491Z,25.16
2022-12-27T20:36:15.653Z,24.99
2022-12-27T20:38:46.728Z,24.97
2022-12-27T20:41:20.734Z,24.72
2022-12-27T20:43:59.084Z,25.42
2022-12-27T20:46:30.158Z,24.87
2022-12-27T20:49:02.071Z,24.38
2022-12-27T20:51:36.159Z,24.58
2022-12-27T20:54:07.882Z,25.05
2022-12-27T20:56:38.248Z,24.99
2022-12-27T20:59:09.666Z,25.00
2022-12-27T21:01:40.778Z,24.95
2022-12-27T21:04:12.363Z,25.81
2022-12-27T21:06:43.698Z,25.67
2022-12-27T21:09:15.042Z,25.38
2022-12-27T21:11:46.557Z,25.96
2022-12-27T21:14:17.610Z,25.88
2022-12-27T21:16:49.281Z,25.79
2022-12-27T21:19:21.084Z,25.87
2022-12-27T21:21:52.263Z,26.41
2022-12-27T21:24:22.931Z,26.67
2022-12-27T21:26:56.556Z,26.47
2022-12-27T21:29:27.789Z,26.96
2022-12-27T21:31:58.767Z,26.50
2022-12-27T21:34:29.991Z,26.09
2022-12-27T21:37:05.428Z,26.75
2022-12-27T21:39:40.161Z,27.18
2022-12-27T21:42:12.481Z,27.53
2022-12-27T21:44:43.945Z,26.97
2022-12-27T21:47:15.073Z,26.88
2022-12-27T21:49:45.682Z,26.90
2022-12-27T21:52:16.647Z,26.66
2022-12-27T21:54:47.631Z,27.73
2022-12-27T21:57:19.039Z,27.26
2022-12-27T21:59:50.162Z,27.21
2022-12-27T22:02:21.322Z,27.23
2022-12-27T22:04:51.725Z,27.84
2022-12-27T22:07:22.603Z,27.38
2022-12-27T22:09:53.663Z,28.00
2022-12-27T22:12:24.778Z,27.98
2022-12-27T22:14:56.236Z,28.08
2022-12-27T22:17:27.874Z,28.02
2022-12-27T22:19:58.778Z,28.60
2022-12-27T22:22:30.049Z,28.16
2022-12-27T22:25:01.003Z,27.76
2022-12-27T22:27:32.826Z,28.53
2022-12-27T22:30:03.840Z,28.94
2022-12-27T22:32:35.120Z,28.83
2022-12-27T22:35:06.272Z,28.71
2022-12-27T22:37:37.139Z,28.43
2022-12-27T22:40:36.674Z,29.08
2022-12-27T22:43:00.124Z,28.84
2022-12-27T22:45:31.343Z,28.57
2022-12-27T22:48:01.804Z,28.27
2022-12-27T22:50:32.703Z,28.42
2022-12-27T22:53:04.005Z,28.46
2022-12-27T22:55:34.452Z,28.93
2022-12-27T22:58:05.429Z,30.12
2022-12-27T23:00:36.581Z,30.27
2022-12-27T23:03:07.804Z,30.77
2022-12-27T23:05:39.167Z,28.72
2022-12-27T23:08:10.282Z,29.71
2022-12-27T23:10:41.119Z,29.22
2022-12-27T23:13:11.679Z,30.48
2022-12-27T23:15:42.723Z,29.41
2022-12-27T23:18:14.348Z,29.21
2022-12-27T23:21:21.165Z,29.89
2022-12-27T23:23:38.323Z,29.59
2022-12-27T23:26:20.505Z,29.44
2022-12-27T23:28:53.698Z,30.10
2022-12-27T23:31:26.759Z,29.74
2022-12-27T23:33:58.355Z,29.65
2022-12-27T23:36:29.602Z,29.91
2022-12-27T23:39:00.858Z,30.03
2022-12-27T23:41:32.195Z,30.01
2022-12-27T23:44:03.480Z,30.03
2022-12-27T23:46:36.632Z,29.89
2022-12-27T23:49:07.587Z,30.48
2022-12-27T23:51:39.020Z,30.15
2022-12-27T23:54:09.513Z,30.35
2022-12-27T23:56:40.811Z,30.54
2022-12-27T23:59:13.099Z,29.24
